Marietta, Georgia
Current Conditions -  °F | °C
As of 2:15 PM on Monday 22 Dec 2014 (Local Time) from KMGE Reporting Station
Drizzle Drizzle  
Wind Chill: 38°   Ceiling: 300
Heat Index: 45°   Visibility: 1.2mi
Dew Point: 45°   Wind: 13mph
Humidity: 100%   Direction: 90°E
Pressure: 29.92"   Gusts: NA
Location:  33.95°N, 84.54°W
Report Text: KMGE 221915Z 09011KT 1 1/4SM -DZ BR OVC003 07/07 A2992 RMK AO2A $
Loading
Personal Weather Stations






























Interactive Weather Map New forecast layout! Learn more

10-Day Weather Forecast

Advertisements
Track Severe Weather on mobile